createdAt,value
2018-08-18T00:00:31.395Z,16.93
2018-08-18T00:03:01.143Z,16.89
2018-08-18T00:05:31.190Z,16.87
2018-08-18T00:08:00.787Z,16.86
2018-08-18T00:10:30.748Z,16.86
2018-08-18T00:13:00.565Z,16.85
2018-08-18T00:15:30.378Z,16.84
2018-08-18T00:18:00.127Z,16.90
2018-08-18T00:20:29.898Z,16.91
2018-08-18T00:22:59.391Z,16.92
2018-08-18T00:25:29.422Z,16.90
2018-08-18T00:28:08.285Z,16.89
2018-08-18T00:30:38.675Z,16.93
2018-08-18T00:33:08.233Z,16.95
2018-08-18T00:35:38.050Z,16.99
2018-08-18T00:38:07.484Z,17.01
2018-08-18T00:40:37.017Z,17.08
2018-08-18T00:43:07.109Z,17.09
2018-08-18T00:45:36.842Z,17.12
2018-08-18T00:48:06.331Z,17.09
2018-08-18T00:50:43.727Z,17.10
2018-08-18T00:53:15.475Z,17.06
2018-08-18T00:55:45.128Z,16.99
2018-08-18T00:58:19.564Z,16.96
2018-08-18T01:01:05.390Z,16.94
2018-08-18T01:03:42.796Z,16.94
2018-08-18T01:06:23.819Z,16.94
2018-08-18T01:08:54.693Z,16.94
2018-08-18T01:11:24.682Z,16.99
2018-08-18T01:13:55.168Z,17.04
2018-08-18T01:16:25.093Z,17.14
2018-08-18T01:18:55.450Z,17.20
2018-08-18T01:21:25.668Z,17.24
2018-08-18T01:23:55.272Z,17.22
2018-08-18T01:26:24.603Z,17.23
2018-08-18T01:28:58.989Z,17.21
2018-08-18T01:31:28.441Z,17.23
2018-08-18T01:33:58.255Z,17.25
2018-08-18T01:36:27.944Z,17.25
2018-08-18T01:38:57.341Z,17.26
2018-08-18T01:41:26.982Z,17.27
2018-08-18T01:44:29.813Z,17.27
2018-08-18T01:46:59.692Z,17.24
2018-08-18T01:49:33.570Z,17.24
2018-08-18T01:52:05.578Z,17.21
2018-08-18T01:54:35.231Z,17.21
2018-08-18T01:57:08.367Z,17.26
2018-08-18T01:59:39.089Z,17.26
2018-08-18T02:02:12.245Z,17.26
2018-08-18T02:04:41.891Z,17.28
2018-08-18T02:07:22.914Z,17.28
2018-08-18T02:09:52.432Z,17.31
2018-08-18T02:12:22.819Z,17.36
2018-08-18T02:14:52.408Z,17.39
2018-08-18T02:17:30.333Z,17.39
2018-08-18T02:20:00.510Z,17.39
2018-08-18T02:22:31.219Z,17.38
2018-08-18T02:25:00.785Z,17.36
2018-08-18T02:27:30.801Z,17.35
2018-08-18T02:30:11.316Z,17.34
2018-08-18T02:32:40.724Z,17.29
2018-08-18T02:35:10.107Z,17.28
2018-08-18T02:37:39.985Z,17.33
2018-08-18T02:40:14.549Z,17.34
2018-08-18T02:42:44.421Z,17.34
2018-08-18T02:45:14.742Z,17.36
2018-08-18T02:47:44.201Z,17.37
2018-08-18T02:50:14.677Z,17.34
2018-08-18T02:52:44.230Z,17.31
2018-08-18T02:55:13.750Z,17.31
2018-08-18T02:57:44.047Z,17.34
2018-08-18T03:00:27.079Z,17.35
2018-08-18T03:02:56.957Z,17.37
2018-08-18T03:05:26.633Z,17.37
2018-08-18T03:07:56.488Z,17.34
2018-08-18T03:10:26.993Z,17.34
2018-08-18T03:13:00.214Z,17.32
2018-08-18T03:16:11.888Z,17.31
2018-08-18T03:18:45.604Z,17.27
2018-08-18T03:21:15.428Z,17.23
2018-08-18T03:23:57.300Z,17.23
2018-08-18T03:26:31.505Z,17.26
2018-08-18T03:29:01.625Z,17.27
2018-08-18T03:31:31.401Z,17.25
2018-08-18T03:34:01.036Z,17.31
2018-08-18T03:36:32.051Z,17.32
2018-08-18T03:39:01.602Z,17.35
2018-08-18T03:41:31.356Z,17.34
2018-08-18T03:44:01.112Z,17.26
2018-08-18T03:46:30.985Z,17.29
2018-08-18T03:49:00.725Z,17.31
2018-08-18T03:51:35.156Z,17.28
2018-08-18T03:54:04.925Z,17.27
2018-08-18T03:56:34.294Z,17.30
2018-08-18T03:59:04.047Z,17.30
2018-08-18T04:01:50.074Z,17.28
2018-08-18T04:04:20.887Z,17.26
2018-08-18T04:06:51.767Z,17.26
2018-08-18T04:09:25.600Z,17.27
2018-08-18T04:11:56.614Z,17.20
2018-08-18T04:14:31.340Z,17.18
2018-08-18T04:17:01.687Z,17.20
2018-08-18T04:19:31.441Z,17.22
2018-08-18T04:22:01.245Z,17.25
2018-08-18T04:24:36.147Z,17.27
2018-08-18T04:27:05.614Z,17.27
2018-08-18T04:29:35.112Z,17.24
2018-08-18T04:32:05.048Z,17.28
2018-08-18T04:34:34.908Z,17.31
2018-08-18T04:37:04.488Z,17.36
2018-08-18T04:39:34.043Z,17.36
2018-08-18T04:42:03.805Z,17.34
2018-08-18T04:44:33.308Z,17.31
2018-08-18T04:47:03.345Z,17.34
2018-08-18T04:49:33.382Z,17.40
2018-08-18T04:52:03.149Z,17.43
2018-08-18T04:54:32.841Z,17.42
2018-08-18T04:57:02.822Z,17.43
2018-08-18T04:59:32.481Z,17.49
2018-08-18T05:02:02.146Z,17.53
2018-08-18T05:04:31.849Z,17.57
2018-08-18T05:07:01.477Z,17.60
2018-08-18T05:09:31.228Z,17.63
2018-08-18T05:12:00.854Z,17.73
2018-08-18T05:14:30.179Z,17.73
2018-08-18T05:16:59.740Z,17.77
2018-08-18T05:19:29.575Z,17.76
2018-08-18T05:21:59.148Z,17.78
2018-08-18T05:24:31.638Z,17.74
2018-08-18T05:27:32.994Z,17.72
2018-08-18T05:30:02.803Z,17.69
2018-08-18T05:32:32.579Z,17.70
2018-08-18T05:35:03.446Z,17.76
2018-08-18T05:37:33.373Z,17.78
2018-08-18T05:40:03.286Z,17.77
2018-08-18T05:42:32.634Z,17.75
2018-08-18T05:45:12.213Z,17.79
2018-08-18T05:47:42.152Z,17.85
2018-08-18T05:50:11.637Z,17.81
2018-08-18T05:52:41.267Z,17.84
2018-08-18T05:55:11.064Z,17.81
2018-08-18T05:57:40.668Z,17.81
2018-08-18T06:00:15.409Z,17.87
2018-08-18T06:02:50.169Z,17.97
2018-08-18T06:05:19.653Z,18.09
2018-08-18T06:07:49.807Z,18.15
2018-08-18T06:10:19.460Z,18.20
2018-08-18T06:12:49.225Z,18.28
2018-08-18T06:15:18.293Z,18.32
2018-08-18T06:17:48.217Z,18.25
2018-08-18T06:20:18.335Z,18.32
2018-08-18T06:22:48.422Z,18.34
2018-08-18T06:25:18.022Z,18.35
2018-08-18T06:27:47.492Z,18.39
2018-08-18T06:30:17.401Z,18.46
2018-08-18T06:32:47.555Z,18.48
2018-08-18T06:35:16.987Z,18.51
2018-08-18T06:37:53.111Z,18.55
2018-08-18T06:40:22.784Z,18.57
2018-08-18T06:42:52.668Z,18.55
2018-08-18T06:45:22.108Z,18.60
2018-08-18T06:47:51.697Z,18.64
2018-08-18T06:50:23.279Z,18.70
2018-08-18T06:52:52.510Z,18.68
2018-08-18T06:55:22.658Z,18.72
2018-08-18T06:57:54.474Z,18.76
2018-08-18T07:00:25.872Z,18.86
2018-08-18T07:02:56.052Z,18.98
2018-08-18T07:05:25.875Z,19.03
2018-08-18T07:07:55.379Z,19.11
2018-08-18T07:10:31.014Z,19.18
2018-08-18T07:13:04.265Z,19.24
2018-08-18T07:15:36.125Z,19.23
2018-08-18T07:18:06.692Z,19.21
2018-08-18T07:20:36.660Z,19.32
2018-08-18T07:23:06.392Z,19.37
2018-08-18T07:25:44.220Z,19.29
2018-08-18T07:28:13.782Z,19.10
2018-08-18T07:30:43.908Z,19.15
2018-08-18T07:33:13.578Z,19.12
2018-08-18T07:35:43.715Z,19.19
2018-08-18T07:38:13.432Z,19.11
2018-08-18T07:40:46.128Z,19.22
2018-08-18T07:43:19.872Z,19.29
2018-08-18T07:45:50.138Z,19.50
2018-08-18T07:48:20.073Z,19.68
2018-08-18T07:50:49.664Z,19.73
2018-08-18T07:53:19.213Z,19.61
2018-08-18T07:55:48.597Z,19.61
2018-08-18T07:58:20.206Z,19.59
2018-08-18T08:00:49.691Z,19.51
2018-08-18T08:03:20.164Z,19.49
2018-08-18T08:05:49.820Z,19.57
2018-08-18T08:08:19.842Z,19.65
2018-08-18T08:10:49.305Z,19.82
2018-08-18T08:13:18.597Z,19.98
2018-08-18T08:15:48.087Z,20.15
2018-08-18T08:18:18.208Z,20.27
2018-08-18T08:20:48.920Z,20.37
2018-08-18T08:23:18.662Z,20.40
2018-08-18T08:25:48.165Z,20.38
2018-08-18T08:28:17.587Z,20.35
2018-08-18T08:30:47.577Z,20.40
2018-08-18T08:33:30.546Z,20.37
2018-08-18T08:36:00.475Z,20.33
2018-08-18T08:38:39.153Z,20.28
2018-08-18T08:41:10.256Z,20.14
2018-08-18T08:43:39.537Z,20.02
2018-08-18T08:46:08.973Z,19.93
2018-08-18T08:48:38.734Z,19.93
2018-08-18T08:51:07.914Z,19.81
2018-08-18T08:53:37.101Z,19.85
2018-08-18T08:56:06.960Z,19.66
2018-08-18T08:58:40.443Z,19.70
2018-08-18T09:01:10.463Z,19.61
2018-08-18T09:03:40.379Z,19.57
2018-08-18T09:06:09.892Z,19.61
2018-08-18T09:08:39.644Z,19.55
2018-08-18T09:11:08.912Z,19.51
2018-08-18T09:13:38.922Z,19.47
2018-08-18T09:16:08.523Z,19.38
2018-08-18T09:18:38.607Z,19.35
2018-08-18T09:21:07.852Z,19.41
2018-08-18T09:23:41.620Z,19.42
2018-08-18T09:26:11.516Z,19.45
2018-08-18T09:28:41.079Z,19.47
2018-08-18T09:31:11.007Z,19.49
2018-08-18T09:33:40.705Z,19.49
2018-08-18T09:36:10.311Z,19.44
2018-08-18T09:38:39.845Z,19.38
2018-08-18T09:41:09.583Z,19.38
2018-08-18T09:43:40.169Z,19.33
2018-08-18T09:46:10.590Z,19.22
2018-08-18T09:48:40.687Z,19.22
2018-08-18T09:51:09.833Z,19.21
2018-08-18T09:53:39.949Z,19.23
2018-08-18T09:56:09.894Z,19.18
2018-08-18T09:58:39.708Z,19.19
2018-08-18T10:01:09.429Z,19.20
2018-08-18T10:03:38.836Z,19.24
2018-08-18T10:06:08.659Z,19.25
2018-08-18T10:08:38.657Z,19.27
2018-08-18T10:11:08.571Z,19.20
2018-08-18T10:13:37.824Z,19.13
2018-08-18T10:16:07.423Z,19.00
2018-08-18T10:18:40.927Z,18.93
2018-08-18T10:21:10.683Z,18.86
2018-08-18T10:23:41.106Z,18.82
2018-08-18T10:26:10.642Z,18.90
2018-08-18T10:28:40.582Z,18.70
2018-08-18T10:31:10.418Z,18.43
2018-08-18T10:33:39.940Z,18.22
2018-08-18T10:36:10.069Z,18.18
2018-08-18T10:38:39.292Z,18.24
2018-08-18T10:41:08.693Z,18.21
2018-08-18T10:43:38.412Z,18.21
2018-08-18T10:46:07.886Z,18.19
2018-08-18T10:48:37.052Z,18.19
2018-08-18T10:51:26.997Z,18.26
2018-08-18T10:53:56.162Z,18.40
2018-08-18T10:56:25.778Z,18.51
2018-08-18T10:59:11.049Z,18.48
2018-08-18T11:01:53.258Z,18.51
2018-08-18T11:04:22.759Z,18.57
2018-08-18T11:06:52.495Z,18.61
2018-08-18T11:09:22.238Z,18.77
2018-08-18T11:11:51.327Z,18.88
2018-08-18T11:14:21.374Z,18.97
2018-08-18T11:16:50.830Z,19.11
2018-08-18T11:19:20.404Z,19.14
2018-08-18T11:22:00.366Z,19.22
2018-08-18T11:24:29.762Z,19.30
2018-08-18T11:26:59.669Z,19.32
2018-08-18T11:29:29.875Z,19.37
2018-08-18T11:31:59.614Z,19.38
2018-08-18T11:34:29.302Z,19.32
2018-08-18T11:37:06.970Z,19.40
2018-08-18T11:39:36.421Z,19.32
2018-08-18T11:42:05.841Z,19.32
2018-08-18T11:44:35.480Z,19.34
2018-08-18T11:47:05.258Z,19.34
2018-08-18T11:49:34.499Z,19.40
2018-08-18T11:52:04.449Z,19.34
2018-08-18T11:54:33.759Z,19.34
2018-08-18T11:57:03.457Z,19.31
2018-08-18T11:59:32.887Z,19.34
2018-08-18T12:02:02.682Z,19.30
2018-08-18T12:04:32.271Z,19.22
2018-08-18T12:07:02.209Z,19.18
2018-08-18T12:09:31.827Z,19.17
2018-08-18T12:12:02.143Z,19.25
2018-08-18T12:14:32.066Z,19.25
2018-08-18T12:17:01.903Z,19.21
2018-08-18T12:19:31.876Z,19.24
2018-08-18T12:22:02.237Z,19.31
2018-08-18T12:24:32.019Z,19.32
2018-08-18T12:27:07.927Z,19.42
2018-08-18T12:29:37.391Z,19.53
2018-08-18T12:32:13.340Z,19.56
2018-08-18T12:34:44.116Z,19.69
2018-08-18T12:37:15.985Z,19.76
2018-08-18T12:39:45.474Z,19.84
2018-08-18T12:42:18.827Z,19.93
2018-08-18T12:44:48.749Z,19.91
2018-08-18T12:47:18.404Z,19.90
2018-08-18T12:49:48.051Z,19.92
2018-08-18T12:52:18.006Z,19.94
2018-08-18T12:54:47.633Z,19.96
2018-08-18T12:57:27.204Z,19.87
2018-08-18T12:59:57.699Z,19.82
2018-08-18T13:02:36.978Z,19.81
2018-08-18T13:05:06.649Z,19.82
2018-08-18T13:07:40.312Z,19.75
2018-08-18T13:10:31.102Z,19.68
2018-08-18T13:13:01.308Z,19.62
2018-08-18T13:15:30.818Z,19.57
2018-08-18T13:18:00.609Z,19.58
2018-08-18T13:20:29.873Z,19.53
2018-08-18T13:23:00.060Z,19.33
2018-08-18T13:25:31.492Z,19.61
2018-08-18T13:28:01.258Z,19.58
2018-08-18T13:30:31.004Z,19.59
2018-08-18T13:33:01.006Z,19.59
2018-08-18T13:35:30.968Z,19.52
2018-08-18T13:38:00.662Z,19.57
2018-08-18T13:40:30.184Z,19.55
2018-08-18T13:43:00.143Z,19.54
2018-08-18T13:45:47.556Z,19.56
2018-08-18T13:48:16.891Z,19.60
2018-08-18T13:50:46.452Z,19.62
2018-08-18T13:53:16.385Z,19.65
2018-08-18T13:55:45.912Z,19.70
2018-08-18T13:58:15.744Z,19.02
2018-08-18T14:00:45.624Z,19.84
2018-08-18T14:03:27.010Z,19.88
2018-08-18T14:05:57.193Z,19.86
2018-08-18T14:08:26.675Z,19.82
2018-08-18T14:10:56.922Z,19.83
2018-08-18T14:13:28.149Z,19.81
2018-08-18T14:15:58.661Z,19.82
2018-08-18T14:18:30.061Z,19.78
2018-08-18T14:21:08.667Z,19.79
2018-08-18T14:23:38.503Z,19.77
2018-08-18T14:26:08.049Z,19.75
2018-08-18T14:28:38.155Z,19.70
2018-08-18T14:31:08.288Z,19.70
2018-08-18T14:33:37.923Z,19.70
2018-08-18T14:36:14.966Z,19.64
2018-08-18T14:38:47.035Z,19.66
2018-08-18T14:41:27.061Z,19.61
2018-08-18T14:43:56.585Z,19.66
2018-08-18T14:46:26.567Z,19.65
2018-08-18T14:48:55.884Z,19.63
2018-08-18T14:51:25.419Z,19.64
2018-08-18T14:53:55.171Z,19.66
2018-08-18T14:56:24.998Z,19.61
2018-08-18T14:58:55.249Z,18.92
2018-08-18T15:01:24.741Z,19.64
2018-08-18T15:03:54.507Z,19.63
2018-08-18T15:06:24.918Z,19.64
2018-08-18T15:08:54.265Z,19.63
2018-08-18T15:11:24.124Z,19.56
2018-08-18T15:13:54.273Z,19.55
2018-08-18T15:16:23.790Z,19.55
2018-08-18T15:18:53.338Z,19.54
2018-08-18T15:21:23.086Z,19.57
2018-08-18T15:23:52.304Z,19.54
2018-08-18T15:26:22.203Z,19.47
2018-08-18T15:28:53.299Z,19.35
2018-08-18T15:31:23.564Z,19.25
2018-08-18T15:33:52.813Z,19.18
2018-08-18T15:36:31.840Z,19.16
2018-08-18T15:39:01.447Z,19.12
2018-08-18T15:41:31.037Z,19.09
2018-08-18T15:44:01.605Z,19.07
2018-08-18T15:46:32.049Z,19.07
2018-08-18T15:49:01.673Z,19.03
2018-08-18T15:51:31.929Z,19.11
2018-08-18T15:54:03.791Z,19.14
2018-08-18T15:56:35.425Z,19.08
2018-08-18T15:59:05.281Z,19.08
2018-08-18T16:01:36.248Z,19.08
2018-08-18T16:04:06.037Z,19.08
2018-08-18T16:06:35.525Z,19.08
2018-08-18T16:09:06.788Z,19.01
2018-08-18T16:11:36.397Z,18.98
2018-08-18T16:14:05.920Z,18.98
2018-08-18T16:16:49.373Z,18.94
2018-08-18T16:19:18.934Z,18.96
2018-08-18T16:21:48.641Z,18.96
2018-08-18T16:24:30.037Z,18.98
2018-08-18T16:26:59.948Z,19.03
2018-08-18T16:29:30.269Z,19.03
2018-08-18T16:32:14.380Z,19.04
2018-08-18T16:34:45.313Z,19.05
2018-08-18T16:37:14.993Z,19.09
2018-08-18T16:39:44.777Z,19.12
2018-08-18T16:42:15.403Z,19.12
2018-08-18T16:44:45.118Z,19.13
2018-08-18T16:47:14.730Z,19.12
2018-08-18T16:49:44.108Z,19.13
2018-08-18T16:52:14.767Z,19.13
2018-08-18T16:54:44.459Z,19.16
2018-08-18T16:57:14.657Z,19.15
2018-08-18T16:59:44.236Z,19.19
2018-08-18T17:02:28.597Z,19.22
2018-08-18T17:04:58.608Z,19.22
2018-08-18T17:07:28.774Z,19.23
2018-08-18T17:09:58.235Z,19.25
2018-08-18T17:12:30.940Z,19.28
2018-08-18T17:15:00.776Z,19.30
2018-08-18T17:17:30.446Z,19.33
2018-08-18T17:19:59.829Z,19.37
2018-08-18T17:22:29.998Z,19.36
2018-08-18T17:24:59.811Z,19.33
2018-08-18T17:27:32.013Z,19.32
2018-08-18T17:30:04.203Z,19.23
2018-08-18T17:32:33.534Z,19.10
2018-08-18T17:35:03.471Z,18.47
2018-08-18T17:37:33.104Z,19.09
2018-08-18T17:40:03.330Z,19.06
2018-08-18T17:42:32.853Z,19.07
2018-08-18T17:45:03.951Z,19.03
2018-08-18T17:47:35.615Z,19.02
2018-08-18T17:50:05.950Z,19.03
2018-08-18T17:52:36.031Z,19.05
2018-08-18T17:55:16.501Z,19.08
2018-08-18T17:57:46.168Z,19.03
2018-08-18T18:00:18.438Z,18.86
2018-08-18T18:02:53.729Z,18.45
2018-08-18T18:05:26.093Z,18.67
2018-08-18T18:07:59.973Z,18.68
2018-08-18T18:10:32.429Z,18.64
2018-08-18T18:13:02.483Z,18.57
2018-08-18T18:15:38.146Z,18.53
2018-08-18T18:18:10.531Z,18.59
2018-08-18T18:20:40.001Z,18.60
2018-08-18T18:23:12.549Z,18.60
2018-08-18T18:25:42.170Z,18.65
2018-08-18T18:28:12.182Z,18.62
2018-08-18T18:30:41.511Z,18.59
2018-08-18T18:33:11.939Z,18.52
2018-08-18T18:35:41.575Z,18.58
2018-08-18T18:38:11.259Z,18.59
2018-08-18T18:40:42.091Z,18.61
2018-08-18T18:43:11.343Z,18.62
2018-08-18T18:45:41.040Z,18.62
2018-08-18T18:48:14.198Z,18.56
2018-08-18T18:50:47.233Z,18.57
2018-08-18T18:53:17.470Z,18.60
2018-08-18T18:55:52.060Z,18.41
2018-08-18T18:58:22.038Z,18.57
2018-08-18T19:01:01.713Z,18.57
2018-08-18T19:03:31.735Z,18.56
2018-08-18T19:06:01.447Z,18.61
2018-08-18T19:08:31.658Z,18.59
2018-08-18T19:11:04.382Z,18.65
2018-08-18T19:13:33.831Z,18.65
2018-08-18T19:16:03.266Z,18.59
2018-08-18T19:18:33.352Z,18.61
2018-08-18T19:21:02.954Z,18.53
2018-08-18T19:23:33.478Z,18.56
2018-08-18T19:26:03.640Z,18.56
2018-08-18T19:28:33.069Z,18.54
2018-08-18T19:31:03.109Z,18.59
2018-08-18T19:33:32.929Z,18.59
2018-08-18T19:36:03.211Z,18.57
2018-08-18T19:38:33.107Z,18.00
2018-08-18T19:41:02.965Z,18.56
2018-08-18T19:43:32.579Z,18.57
2018-08-18T19:46:02.399Z,18.61
2018-08-18T19:48:32.084Z,18.63
2018-08-18T19:51:03.608Z,18.64
2018-08-18T19:53:34.262Z,18.62
2018-08-18T19:56:04.826Z,18.66
2018-08-18T19:58:34.613Z,18.63
2018-08-18T20:01:04.192Z,18.67
2018-08-18T20:03:33.751Z,18.71
2018-08-18T20:06:07.691Z,18.64
2018-08-18T20:08:37.395Z,18.47
2018-08-18T20:11:06.868Z,18.47
2018-08-18T20:13:36.362Z,18.46
2018-08-18T20:16:05.631Z,18.43
2018-08-18T20:18:35.259Z,18.40
2018-08-18T20:21:04.908Z,18.37
2018-08-18T20:23:34.722Z,18.32
2018-08-18T20:26:04.321Z,18.29
2018-08-18T20:28:33.767Z,18.31
2018-08-18T20:31:03.315Z,17.55
2018-08-18T20:33:32.845Z,18.38
2018-08-18T20:36:02.479Z,18.39
2018-08-18T20:38:37.319Z,18.46
2018-08-18T20:41:06.980Z,18.47
2018-08-18T20:43:36.228Z,18.43
2018-08-18T20:46:05.889Z,18.43
2018-08-18T20:48:35.495Z,18.41
2018-08-18T20:51:05.125Z,18.38
2018-08-18T20:53:34.547Z,18.36
2018-08-18T20:56:04.434Z,18.34
2018-08-18T20:58:35.190Z,18.29
2018-08-18T21:01:04.621Z,18.30
2018-08-18T21:03:46.881Z,18.26
2018-08-18T21:06:17.763Z,18.25
2018-08-18T21:08:47.250Z,18.20
2018-08-18T21:11:16.814Z,18.18
2018-08-18T21:13:48.327Z,18.21
2018-08-18T21:16:18.980Z,18.24
2018-08-18T21:18:48.682Z,18.25
2018-08-18T21:21:29.162Z,18.25
2018-08-18T21:23:58.772Z,18.28
2018-08-18T21:26:29.749Z,18.31
2018-08-18T21:28:59.840Z,18.35
2018-08-18T21:31:35.246Z,18.35
2018-08-18T21:34:06.456Z,18.39
2018-08-18T21:36:36.121Z,18.35
2018-08-18T21:39:09.870Z,18.33
2018-08-18T21:41:45.212Z,18.31
2018-08-18T21:44:15.647Z,18.32
2018-08-18T21:46:45.202Z,18.33
2018-08-18T21:49:14.702Z,18.36
2018-08-18T21:51:44.411Z,18.34
2018-08-18T21:54:14.029Z,18.36
2018-08-18T21:56:44.092Z,18.35
2018-08-18T21:59:14.514Z,18.30
2018-08-18T22:01:44.502Z,18.32
2018-08-18T22:04:13.790Z,18.29
2018-08-18T22:06:43.424Z,18.35
2018-08-18T22:09:33.813Z,18.38
2018-08-18T22:12:03.855Z,17.69
2018-08-18T22:14:33.232Z,18.39
2018-08-18T22:17:03.015Z,18.37
2018-08-18T22:19:32.811Z,18.29
2018-08-18T22:22:02.602Z,18.28
2018-08-18T22:24:32.714Z,18.17
2018-08-18T22:27:03.641Z,18.05
2018-08-18T22:29:32.968Z,18.11
2018-08-18T22:32:09.249Z,18.11
2018-08-18T22:34:38.505Z,18.13
2018-08-18T22:37:12.621Z,18.16
2018-08-18T22:39:42.844Z,18.21
2018-08-18T22:42:12.556Z,18.20
2018-08-18T22:44:41.733Z,18.09
2018-08-18T22:47:11.210Z,18.13
2018-08-18T22:49:40.547Z,18.15
2018-08-18T22:52:09.951Z,18.08
2018-08-18T22:54:39.599Z,18.08
2018-08-18T22:57:09.301Z,18.05
2018-08-18T22:59:38.566Z,18.15
2018-08-18T23:02:08.279Z,18.18
2018-08-18T23:04:39.109Z,18.20
2018-08-18T23:07:09.123Z,18.22
2018-08-18T23:09:38.634Z,18.24
2018-08-18T23:12:08.934Z,18.27
2018-08-18T23:14:40.380Z,18.30
2018-08-18T23:17:11.308Z,18.34
2018-08-18T23:19:40.813Z,18.34
2018-08-18T23:22:21.014Z,18.34
2018-08-18T23:24:50.533Z,18.35
2018-08-18T23:27:20.340Z,18.30
2018-08-18T23:29:50.032Z,18.29
2018-08-18T23:32:27.608Z,18.25
2018-08-18T23:34:58.573Z,18.25
2018-08-18T23:37:28.734Z,18.26
2018-08-18T23:39:58.677Z,18.27
2018-08-18T23:42:28.851Z,18.26
2018-08-18T23:44:59.315Z,18.16
2018-08-18T23:47:28.883Z,18.23
2018-08-18T23:49:58.859Z,18.23
2018-08-18T23:52:28.197Z,18.24
2018-08-18T23:54:57.766Z,18.17
2018-08-18T23:57:28.937Z,18.18
